sensor_id;sensor_type;location;lat;lon;timestamp;pressure;altitude;pressure_sealevel;temperature;humidity
36692;BME280;22678;52.052;4.242;2022-10-31T00:02:02;102049.78;;;13.43;81.80
36692;BME280;22678;52.052;4.242;2022-10-31T00:04:27;102062.09;;;13.47;81.84
36692;BME280;22678;52.052;4.242;2022-10-31T00:06:53;102036.56;;;13.34;81.66
36692;BME280;22678;52.052;4.242;2022-10-31T00:09:18;102067.41;;;13.44;81.97
36692;BME280;22678;52.052;4.242;2022-10-31T00:11:43;102056.81;;;13.38;82.09
36692;BME280;22678;52.052;4.242;2022-10-31T00:14:09;102066.50;;;13.38;82.34
36692;BME280;22678;52.052;4.242;2022-10-31T00:16:34;102063.00;;;13.36;82.07
36692;BME280;22678;52.052;4.242;2022-10-31T00:19:03;102057.66;;;13.28;82.35
36692;BME280;22678;52.052;4.242;2022-10-31T00:21:29;102078.84;;;13.37;82.44
36692;BME280;22678;52.052;4.242;2022-10-31T00:23:55;102062.94;;;13.25;82.42
36692;BME280;22678;52.052;4.242;2022-10-31T00:26:20;102067.34;;;13.30;82.38
36692;BME280;22678;52.052;4.242;2022-10-31T00:28:46;102079.69;;;13.33;82.14
36692;BME280;22678;52.052;4.242;2022-10-31T00:31:12;102075.28;;;13.27;82.62
36692;BME280;22678;52.052;4.242;2022-10-31T00:33:39;102069.13;;;13.24;82.66
36692;BME280;22678;52.052;4.242;2022-10-31T00:36:05;102072.63;;;13.26;82.63
36692;BME280;22678;52.052;4.242;2022-10-31T00:38:31;102058.56;;;13.21;82.86
36692;BME280;22678;52.052;4.242;2022-10-31T00:40:56;102065.59;;;13.22;82.75
36692;BME280;22678;52.052;4.242;2022-10-31T00:43:22;102062.06;;;13.20;83.09
36692;BME280;22678;52.052;4.242;2022-10-31T00:45:48;102072.63;;;13.21;82.86
36692;BME280;22678;52.052;4.242;2022-10-31T00:48:13;102068.22;;;13.19;83.29
36692;BME280;22678;52.052;4.242;2022-10-31T00:50:39;102070.00;;;13.18;83.11
36692;BME280;22678;52.052;4.242;2022-10-31T00:53:04;102073.50;;;13.17;83.25
36692;BME280;22678;52.052;4.242;2022-10-31T00:55:30;102057.66;;;13.09;83.22
36692;BME280;22678;52.052;4.242;2022-10-31T00:57:55;102069.09;;;13.08;83.24
36692;BME280;22678;52.052;4.242;2022-10-31T01:00:21;102059.41;;;13.03;83.40
36692;BME280;22678;52.052;4.242;2022-10-31T01:02:46;102057.66;;;13.02;83.46
36692;BME280;22678;52.052;4.242;2022-10-31T01:05:12;102052.38;;;12.99;83.18
36692;BME280;22678;52.052;4.242;2022-10-31T01:07:41;102056.75;;;12.98;83.29
36692;BME280;22678;52.052;4.242;2022-10-31T01:10:08;102051.47;;;12.93;83.46
36692;BME280;22678;52.052;4.242;2022-10-31T01:15:04;102062.91;;;12.89;83.19
36692;BME280;22678;52.052;4.242;2022-10-31T01:17:29;102054.13;;;12.83;83.45
36692;BME280;22678;52.052;4.242;2022-10-31T01:19:54;102055.84;;;12.79;83.28
36692;BME280;22678;52.052;4.242;2022-10-31T01:22:20;102044.41;;;12.72;83.50
36692;BME280;22678;52.052;4.242;2022-10-31T01:24:45;102042.63;;;12.68;83.45
36692;BME280;22678;52.052;4.242;2022-10-31T01:27:10;102060.25;;;12.74;83.30
36692;BME280;22678;52.052;4.242;2022-10-31T01:29:35;102047.91;;;12.65;83.39
36692;BME280;22678;52.052;4.242;2022-10-31T01:32:01;102050.56;;;12.65;83.76
36692;BME280;22678;52.052;4.242;2022-10-31T01:34:26;102019.72;;;12.46;83.42
36692;BME280;22678;52.052;4.242;2022-10-31T01:36:51;102041.72;;;12.63;83.52
36692;BME280;22678;52.052;4.242;2022-10-31T01:39:17;102051.41;;;12.61;83.70
36692;BME280;22678;52.052;4.242;2022-10-31T01:41:47;102042.59;;;12.50;83.89
36692;BME280;22678;52.052;4.242;2022-10-31T01:46:44;102030.28;;;12.49;83.87
36692;BME280;22678;52.052;4.242;2022-10-31T01:49:34;102039.06;;;12.46;83.89
36692;BME280;22678;52.052;4.242;2022-10-31T01:52:14;102041.69;;;12.46;83.95
36692;BME280;22678;52.052;4.242;2022-10-31T01:54:46;102029.38;;;12.39;83.79
36692;BME280;22678;52.052;4.242;2022-10-31T01:57:14;102032.00;;;12.39;83.97
36692;BME280;22678;52.052;4.242;2022-10-31T01:59:43;102040.78;;;12.41;84.04
36692;BME280;22678;52.052;4.242;2022-10-31T02:02:10;102029.34;;;12.34;84.03
36692;BME280;22678;52.052;4.242;2022-10-31T02:04:36;102023.16;;;12.29;83.87
36692;BME280;22678;52.052;4.242;2022-10-31T02:07:13;102023.16;;;12.26;84.17
36692;BME280;22678;52.052;4.242;2022-10-31T02:09:40;102040.75;;;12.30;84.02
36692;BME280;22678;52.052;4.242;2022-10-31T02:12:06;102023.16;;;12.24;84.17
36692;BME280;22678;52.052;4.242;2022-10-31T02:14:35;102017.00;;;12.16;84.08
36692;BME280;22678;52.052;4.242;2022-10-31T02:17:01;102030.19;;;12.24;84.35
36692;BME280;22678;52.052;4.242;2022-10-31T02:22:09;102032.81;;;12.21;84.15
36692;BME280;22678;52.052;4.242;2022-10-31T02:24:50;102024.91;;;12.18;84.22
36692;BME280;22678;52.052;4.242;2022-10-31T02:30:37;102026.63;;;12.09;84.54
36692;BME280;22678;52.052;4.242;2022-10-31T02:33:15;102023.97;;;12.11;84.66
36692;BME280;22678;52.052;4.242;2022-10-31T02:35:52;102036.28;;;12.11;84.46
36692;BME280;22678;52.052;4.242;2022-10-31T02:38:45;102031.88;;;12.06;84.53
36692;BME280;22678;52.052;4.242;2022-10-31T02:41:42;102024.84;;;12.05;84.53
36692;BME280;22678;52.052;4.242;2022-10-31T02:46:42;102020.41;;;12.00;84.45
36692;BME280;22678;52.052;4.242;2022-10-31T02:49:18;102028.31;;;11.98;84.63
36692;BME280;22678;52.052;4.242;2022-10-31T02:51:46;102014.25;;;11.93;84.80
36692;BME280;22678;52.052;4.242;2022-10-31T02:54:22;102010.66;;;11.88;84.96
36692;BME280;22678;52.052;4.242;2022-10-31T02:56:48;102016.81;;;11.88;84.64
36692;BME280;22678;52.052;4.242;2022-10-31T02:59:16;102029.16;;;11.92;84.91
36692;BME280;22678;52.052;4.242;2022-10-31T03:01:48;102027.38;;;11.90;84.99
36692;BME280;22678;52.052;4.242;2022-10-31T03:04:25;102025.63;;;11.92;85.02
36692;BME280;22678;52.052;4.242;2022-10-31T03:10:02;102021.22;;;11.91;85.48
36692;BME280;22678;52.052;4.242;2022-10-31T03:15:17;102016.81;;;11.84;85.62
36692;BME280;22678;52.052;4.242;2022-10-31T03:20:20;102023.78;;;11.75;85.48
36692;BME280;22678;52.052;4.242;2022-10-31T03:22:49;102029.91;;;11.78;85.64
36692;BME280;22678;52.052;4.242;2022-10-31T03:25:16;102019.34;;;11.71;85.59
36692;BME280;22678;52.052;4.242;2022-10-31T03:27:42;102018.47;;;11.71;85.71
36692;BME280;22678;52.052;4.242;2022-10-31T03:30:09;102019.34;;;11.70;85.66
36692;BME280;22678;52.052;4.242;2022-10-31T03:32:48;102017.59;;;11.70;85.94
36692;BME280;22678;52.052;4.242;2022-10-31T03:35:17;102021.97;;;11.67;86.09
36692;BME280;22678;52.052;4.242;2022-10-31T03:37:44;102021.09;;;11.66;86.04
36692;BME280;22678;52.052;4.242;2022-10-31T03:40:12;102021.94;;;11.62;85.66
36692;BME280;22678;52.052;4.242;2022-10-31T03:42:41;102024.56;;;11.61;86.02
36692;BME280;22678;52.052;4.242;2022-10-31T03:45:15;102027.16;;;11.53;85.95
36692;BME280;22678;52.052;4.242;2022-10-31T03:47:44;102015.66;;;11.45;86.20
36692;BME280;22678;52.052;4.242;2022-10-31T03:50:13;102027.16;;;11.51;86.17
36692;BME280;22678;52.052;4.242;2022-10-31T03:52:49;102028.03;;;11.55;86.46
36692;BME280;22678;52.052;4.242;2022-10-31T03:55:19;102031.53;;;11.54;86.59
36692;BME280;22678;52.052;4.242;2022-10-31T03:58:02;102027.09;;;11.48;86.67
36692;BME280;22678;52.052;4.242;2022-10-31T04:00:31;102016.50;;;11.39;86.46
36692;BME280;22678;52.052;4.242;2022-10-31T04:03:02;102033.25;;;11.46;86.30
36692;BME280;22678;52.052;4.242;2022-10-31T04:05:29;102026.16;;;11.35;86.28
36692;BME280;22678;52.052;4.242;2022-10-31T04:07:57;102032.28;;;11.36;86.10
36692;BME280;22678;52.052;4.242;2022-10-31T04:10:26;102036.66;;;11.29;86.19
36692;BME280;22678;52.052;4.242;2022-10-31T04:12:59;102042.78;;;11.31;86.36
36692;BME280;22678;52.052;4.242;2022-10-31T04:15:26;102041.00;;;11.30;86.37
36692;BME280;22678;52.052;4.242;2022-10-31T04:17:57;102048.06;;;11.31;86.50
36692;BME280;22678;52.052;4.242;2022-10-31T04:20:36;102034.84;;;11.25;86.56
36692;BME280;22678;52.052;4.242;2022-10-31T04:23:02;102041.91;;;11.29;86.61
36692;BME280;22678;52.052;4.242;2022-10-31T04:25:28;102028.69;;;11.25;86.77
36692;BME280;22678;52.052;4.242;2022-10-31T04:27:54;102034.84;;;11.25;86.73
36692;BME280;22678;52.052;4.242;2022-10-31T04:30:19;102024.28;;;11.22;87.00
36692;BME280;22678;52.052;4.242;2022-10-31T04:32:44;102026.91;;;11.20;86.77
36692;BME280;22678;52.052;4.242;2022-10-31T04:35:10;102030.44;;;11.22;86.66
36692;BME280;22678;52.052;4.242;2022-10-31T04:37:35;102019.00;;;11.19;87.08
36692;BME280;22678;52.052;4.242;2022-10-31T04:40:00;102003.16;;;11.16;87.12
36692;BME280;22678;52.052;4.242;2022-10-31T04:42:29;102021.69;;;11.25;87.27
36692;BME280;22678;52.052;4.242;2022-10-31T04:44:54;102019.91;;;11.24;87.42
36692;BME280;22678;52.052;4.242;2022-10-31T04:47:19;102012.00;;;11.21;87.59
36692;BME280;22678;52.052;4.242;2022-10-31T04:49:44;102015.50;;;11.25;87.76
36692;BME280;22678;52.052;4.242;2022-10-31T04:52:10;102009.34;;;11.21;88.00
36692;BME280;22678;52.052;4.242;2022-10-31T04:54:35;102011.16;;;11.25;88.25
36692;BME280;22678;52.052;4.242;2022-10-31T04:57:00;102016.41;;;11.24;88.28
36692;BME280;22678;52.052;4.242;2022-10-31T04:59:25;102012.84;;;11.20;88.42
36692;BME280;22678;52.052;4.242;2022-10-31T05:01:51;102011.94;;;11.15;88.48
36692;BME280;22678;52.052;4.242;2022-10-31T05:04:16;102020.75;;;11.20;88.36
36692;BME280;22678;52.052;4.242;2022-10-31T05:06:41;102009.28;;;11.12;88.36
36692;BME280;22678;52.052;4.242;2022-10-31T05:09:06;102001.31;;;11.05;88.66
36692;BME280;22678;52.052;4.242;2022-10-31T05:11:32;102017.16;;;11.09;88.16
36692;BME280;22678;52.052;4.242;2022-10-31T05:13:57;102006.59;;;11.05;88.59
36692;BME280;22678;52.052;4.242;2022-10-31T05:16:22;102009.19;;;11.01;88.62
36692;BME280;22678;52.052;4.242;2022-10-31T05:18:47;101999.53;;;11.00;88.63
36692;BME280;22678;52.052;4.242;2022-10-31T05:21:13;102006.63;;;11.09;88.87
36692;BME280;22678;52.052;4.242;2022-10-31T05:23:38;102003.09;;;11.07;88.66
36692;BME280;22678;52.052;4.242;2022-10-31T05:26:03;101997.81;;;11.03;88.88
36692;BME280;22678;52.052;4.242;2022-10-31T05:28:29;101998.66;;;11.02;89.15
36692;BME280;22678;52.052;4.242;2022-10-31T05:30:54;101990.75;;;10.99;89.09
36692;BME280;22678;52.052;4.242;2022-10-31T05:33:19;102010.13;;;11.08;88.96
36692;BME280;22678;52.052;4.242;2022-10-31T05:35:45;101983.66;;;10.92;89.55
36692;BME280;22678;52.052;4.242;2022-10-31T05:38:10;101991.66;;;11.00;89.62
36692;BME280;22678;52.052;4.242;2022-10-31T05:40:35;101991.66;;;11.01;89.80
36692;BME280;22678;52.052;4.242;2022-10-31T05:43:00;101991.66;;;11.01;89.80
36692;BME280;22678;52.052;4.242;2022-10-31T05:45:26;101997.81;;;11.07;90.05
36692;BME280;22678;52.052;4.242;2022-10-31T05:47:52;101999.59;;;11.06;90.10
36692;BME280;22678;52.052;4.242;2022-10-31T05:50:17;101983.75;;;11.01;90.41
36692;BME280;22678;52.052;4.242;2022-10-31T05:52:43;101993.38;;;10.99;90.36
36692;BME280;22678;52.052;4.242;2022-10-31T05:55:08;101995.16;;;11.02;90.08
36692;BME280;22678;52.052;4.242;2022-10-31T05:57:33;101991.63;;;10.98;90.50
36692;BME280;22678;52.052;4.242;2022-10-31T05:59:59;101989.00;;;10.98;90.51
36692;BME280;22678;52.052;4.242;2022-10-31T06:02:24;101990.75;;;10.99;90.33
36692;BME280;22678;52.052;4.242;2022-10-31T06:04:50;101987.25;;;10.99;90.94
36692;BME280;22678;52.052;4.242;2022-10-31T06:07:15;101973.16;;;10.95;90.95
36692;BME280;22678;52.052;4.242;2022-10-31T06:09:41;101974.94;;;10.99;91.01
36692;BME280;22678;52.052;4.242;2022-10-31T06:12:06;101932.59;;;10.72;90.97
36692;BME280;22678;52.052;4.242;2022-10-31T06:14:31;101970.47;;;10.87;91.13
36692;BME280;22678;52.052;4.242;2022-10-31T06:16:57;101986.34;;;10.97;91.24
36692;BME280;22678;52.052;4.242;2022-10-31T06:19:22;101983.69;;;10.95;91.34
36692;BME280;22678;52.052;4.242;2022-10-31T06:21:47;101980.16;;;10.93;91.63
36692;BME280;22678;52.052;4.242;2022-10-31T06:24:12;101975.72;;;10.84;91.51
36692;BME280;22678;52.052;4.242;2022-10-31T06:26:38;101985.44;;;10.93;91.71
36692;BME280;22678;52.052;4.242;2022-10-31T06:29:03;101967.81;;;10.86;91.85
36692;BME280;22678;52.052;4.242;2022-10-31T06:31:29;101961.66;;;10.82;91.85
36692;BME280;22678;52.052;4.242;2022-10-31T06:33:54;101978.41;;;10.92;92.07
36692;BME280;22678;52.052;4.242;2022-10-31T06:36:19;101980.16;;;10.90;92.31
36692;BME280;22678;52.052;4.242;2022-10-31T06:38:44;101979.28;;;10.90;92.34
36692;BME280;22678;52.052;4.242;2022-10-31T06:41:10;101975.75;;;10.92;92.65
36692;BME280;22678;52.052;4.242;2022-10-31T06:43:35;101980.19;;;10.96;92.61
36692;BME280;22678;52.052;4.242;2022-10-31T06:46:04;101978.41;;;10.95;92.84
36692;BME280;22678;52.052;4.242;2022-10-31T06:48:30;101989.00;;;10.98;92.76
36692;BME280;22678;52.052;4.242;2022-10-31T06:50:59;101994.28;;;11.01;92.89
36692;BME280;22678;52.052;4.242;2022-10-31T06:53:26;101995.16;;;11.00;93.24
36692;BME280;22678;52.052;4.242;2022-10-31T06:55:51;101981.94;;;10.94;92.97
36692;BME280;22678;52.052;4.242;2022-10-31T06:58:16;102001.28;;;11.02;93.42
36692;BME280;22678;52.052;4.242;2022-10-31T07:00:42;101993.38;;;10.98;93.58
36692;BME280;22678;52.052;4.242;2022-10-31T07:03:11;101991.66;;;11.00;93.68
36692;BME280;22678;52.052;4.242;2022-10-31T07:05:37;102006.59;;;11.05;93.95
36692;BME280;22678;52.052;4.242;2022-10-31T07:08:05;102003.94;;;11.04;94.03
36692;BME280;22678;52.052;4.242;2022-10-31T07:10:32;102005.72;;;11.05;93.98
36692;BME280;22678;52.052;4.242;2022-10-31T07:13:00;102001.28;;;11.02;94.20
36692;BME280;22678;52.052;4.242;2022-10-31T07:15:26;102015.44;;;11.12;94.25
36692;BME280;22678;52.052;4.242;2022-10-31T07:17:53;102013.66;;;11.13;94.55
36692;BME280;22678;52.052;4.242;2022-10-31T07:20:18;102008.41;;;11.13;94.79
36692;BME280;22678;52.052;4.242;2022-10-31T07:22:44;101994.34;;;11.11;94.65
36692;BME280;22678;52.052;4.242;2022-10-31T07:25:10;102016.38;;;11.19;94.65
36692;BME280;22678;52.052;4.242;2022-10-31T07:27:39;102005.78;;;11.16;94.83
36692;BME280;22678;52.052;4.242;2022-10-31T07:30:06;102016.44;;;11.27;94.98
36692;BME280;22678;52.052;4.242;2022-10-31T07:32:43;102012.94;;;11.31;95.05
36692;BME280;22678;52.052;4.242;2022-10-31T07:35:11;102011.19;;;11.31;94.98
36692;BME280;22678;52.052;4.242;2022-10-31T07:37:37;102008.56;;;11.34;95.33
36692;BME280;22678;52.052;4.242;2022-10-31T07:40:03;101993.63;;;11.33;95.32
36692;BME280;22678;52.052;4.242;2022-10-31T07:42:29;102005.09;;;11.38;95.69
36692;BME280;22678;52.052;4.242;2022-10-31T07:44:54;102004.25;;;11.44;95.77
36692;BME280;22678;52.052;4.242;2022-10-31T07:47:20;102009.56;;;11.52;95.92
36692;BME280;22678;52.052;4.242;2022-10-31T07:49:45;102011.38;;;11.57;95.85
36692;BME280;22678;52.052;4.242;2022-10-31T07:52:10;102003.50;;;11.62;95.97
36692;BME280;22678;52.052;4.242;2022-10-31T07:54:35;102004.38;;;11.67;96.22
36692;BME280;22678;52.052;4.242;2022-10-31T07:57:01;102002.69;;;11.72;96.21
36692;BME280;22678;52.052;4.242;2022-10-31T07:59:26;102004.47;;;11.81;96.48
36692;BME280;22678;52.052;4.242;2022-10-31T08:01:52;101979.84;;;11.76;96.61
36692;BME280;22678;52.052;4.242;2022-10-31T08:04:17;101996.59;;;11.87;96.75
36692;BME280;22678;52.052;4.242;2022-10-31T08:06:43;101988.69;;;11.90;96.75
36692;BME280;22678;52.052;4.242;2022-10-31T08:09:08;101993.19;;;12.02;96.81
36692;BME280;22678;52.052;4.242;2022-10-31T08:11:33;102001.13;;;12.10;97.14
36692;BME280;22678;52.052;4.242;2022-10-31T08:13:58;102003.81;;;12.18;96.90
36692;BME280;22678;52.052;4.242;2022-10-31T08:16:24;102011.75;;;12.33;97.37
36692;BME280;22678;52.052;4.242;2022-10-31T08:18:49;102017.94;;;12.41;97.47
36692;BME280;22678;52.052;4.242;2022-10-31T08:21:14;102003.00;;;12.45;97.40
36692;BME280;22678;52.052;4.242;2022-10-31T08:23:39;101998.63;;;12.55;97.23
36692;BME280;22678;52.052;4.242;2022-10-31T08:26:05;102008.34;;;12.68;97.39
36692;BME280;22678;52.052;4.242;2022-10-31T08:28:31;101996.88;;;12.61;96.94
36692;BME280;22678;52.052;4.242;2022-10-31T08:30:57;102010.09;;;12.72;96.92
36692;BME280;22678;52.052;4.242;2022-10-31T08:33:23;101998.69;;;12.76;97.07
36692;BME280;22678;52.052;4.242;2022-10-31T08:35:48;102007.47;;;12.88;96.81
36692;BME280;22678;52.052;4.242;2022-10-31T08:38:14;102011.00;;;12.96;96.89
36692;BME280;22678;52.052;4.242;2022-10-31T08:40:40;101995.16;;;12.99;97.14
36692;BME280;22678;52.052;4.242;2022-10-31T08:43:10;102001.34;;;13.10;96.92
36692;BME280;22678;52.052;4.242;2022-10-31T08:45:36;101998.69;;;13.13;96.41
36692;BME280;22678;52.052;4.242;2022-10-31T08:48:08;101999.56;;;13.11;96.61
36692;BME280;22678;52.052;4.242;2022-10-31T08:50:35;101985.47;;;13.24;96.69
36692;BME280;22678;52.052;4.242;2022-10-31T08:53:13;101996.06;;;13.44;96.12
36692;BME280;22678;52.052;4.242;2022-10-31T08:55:40;101981.06;;;13.46;95.93
36692;BME280;22678;52.052;4.242;2022-10-31T08:58:09;101986.34;;;13.46;95.81
36692;BME280;22678;52.052;4.242;2022-10-31T09:00:35;101989.88;;;13.45;95.79
36692;BME280;22678;52.052;4.242;2022-10-31T09:03:05;101982.84;;;13.47;95.88
36692;BME280;22678;52.052;4.242;2022-10-31T09:05:31;101971.38;;;13.38;95.59
36692;BME280;22678;52.052;4.242;2022-10-31T09:07:58;101984.59;;;13.39;95.85
36692;BME280;22678;52.052;4.242;2022-10-31T09:10:25;101977.53;;;13.38;95.98
36692;BME280;22678;52.052;4.242;2022-10-31T09:12:58;101966.97;;;13.47;96.21
36692;BME280;22678;52.052;4.242;2022-10-31T09:15:24;101940.53;;;13.54;96.43
36692;BME280;22678;52.052;4.242;2022-10-31T09:17:50;101956.31;;;13.81;96.23
36692;BME280;22678;52.052;4.242;2022-10-31T09:20:15;101960.63;;;13.96;95.58
36692;BME280;22678;52.052;4.242;2022-10-31T09:22:41;101962.31;;;14.11;95.24
36692;BME280;22678;52.052;4.242;2022-10-31T09:25:06;101942.94;;;14.11;94.68
36692;BME280;22678;52.052;4.242;2022-10-31T09:27:32;101933.22;;;14.14;94.18
36692;BME280;22678;52.052;4.242;2022-10-31T09:29:57;101941.06;;;14.31;94.09
36692;BME280;22678;52.052;4.242;2022-10-31T09:32:22;101917.28;;;14.27;93.40
36692;BME280;22678;52.052;4.242;2022-10-31T09:34:47;101936.63;;;14.35;93.11
36692;BME280;22678;52.052;4.242;2022-10-31T09:37:13;101939.28;;;14.32;92.90
36692;BME280;22678;52.052;4.242;2022-10-31T09:39:38;101931.38;;;14.29;92.69
36692;BME280;22678;52.052;4.242;2022-10-31T09:42:18;101929.59;;;14.28;92.92
36692;BME280;22678;52.052;4.242;2022-10-31T09:47:54;101924.31;;;14.28;92.62
36692;BME280;22678;52.052;4.242;2022-10-31T09:50:18;101915.53;;;14.24;92.63
36692;BME280;22678;52.052;4.242;2022-10-31T09:52:58;101914.66;;;14.25;92.56
36692;BME280;22678;52.052;4.242;2022-10-31T09:55:38;101919.00;;;14.31;92.28
36692;BME280;22678;52.052;4.242;2022-10-31T09:58:05;101908.41;;;14.34;92.41
36692;BME280;22678;52.052;4.242;2022-10-31T10:00:34;101899.41;;;14.57;92.51
36692;BME280;22678;52.052;4.242;2022-10-31T10:05:37;101886.63;;;15.10;91.21
36692;BME280;22678;52.052;4.242;2022-10-31T10:08:18;101891.78;;;15.20;90.29
36692;BME280;22678;52.052;4.242;2022-10-31T10:10:50;101890.81;;;15.29;89.52
36692;BME280;22678;52.052;4.242;2022-10-31T10:18:27;101891.13;;;15.79;87.27
36692;BME280;22678;52.052;4.242;2022-10-31T10:21:05;101888.31;;;15.90;86.47
36692;BME280;22678;52.052;4.242;2022-10-31T10:26:29;101873.34;;;15.87;85.28
36692;BME280;22678;52.052;4.242;2022-10-31T10:29:00;101871.72;;;15.74;84.67
36692;BME280;22678;52.052;4.242;2022-10-31T10:31:35;101860.50;;;15.53;84.60
36692;BME280;22678;52.052;4.242;2022-10-31T10:34:22;101860.53;;;15.49;84.96
36692;BME280;22678;52.052;4.242;2022-10-31T10:36:53;101860.50;;;15.53;85.24
36692;BME280;22678;52.052;4.242;2022-10-31T10:39:29;101838.28;;;15.64;84.73
36692;BME280;22678;52.052;4.242;2022-10-31T10:41:59;101861.78;;;15.93;84.46
36692;BME280;22678;52.052;4.242;2022-10-31T10:44:46;101868.50;;;16.17;83.37
36692;BME280;22678;52.052;4.242;2022-10-31T10:47:36;101857.72;;;16.26;82.78
36692;BME280;22678;52.052;4.242;2022-10-31T10:50:23;101862.88;;;16.37;80.95
36692;BME280;22678;52.052;4.242;2022-10-31T10:55:45;101852.38;;;16.29;79.56
36692;BME280;22678;52.052;4.242;2022-10-31T10:58:14;101853.47;;;16.16;79.61
36692;BME280;22678;52.052;4.242;2022-10-31T11:00:41;101841.47;;;15.90;79.79
36692;BME280;22678;52.052;4.242;2022-10-31T11:03:08;101847.78;;;15.82;80.08
36692;BME280;22678;52.052;4.242;2022-10-31T11:05:50;101856.59;;;15.82;80.42
36692;BME280;22678;52.052;4.242;2022-10-31T11:08:25;101851.03;;;16.02;80.78
36692;BME280;22678;52.052;4.242;2022-10-31T11:13:26;101842.22;;;16.56;79.81
36692;BME280;22678;52.052;4.242;2022-10-31T11:15:57;101838.25;;;16.79;79.19
36692;BME280;22678;52.052;4.242;2022-10-31T11:18:26;101821.13;;;16.97;78.68
36692;BME280;22678;52.052;4.242;2022-10-31T11:20:54;101820.84;;;17.12;78.41
36692;BME280;22678;52.052;4.242;2022-10-31T11:23:22;101819.59;;;17.30;77.08
36692;BME280;22678;52.052;4.242;2022-10-31T11:25:55;101813.19;;;17.39;76.55
36692;BME280;22678;52.052;4.242;2022-10-31T11:28:21;101794.56;;;17.41;75.16
36692;BME280;22678;52.052;4.242;2022-10-31T11:30:50;101804.97;;;17.50;74.33
36692;BME280;22678;52.052;4.242;2022-10-31T11:33:20;101801.28;;;17.57;73.67
36692;BME280;22678;52.052;4.242;2022-10-31T11:35:48;101787.88;;;17.62;73.72
36692;BME280;22678;52.052;4.242;2022-10-31T11:38:19;101786.53;;;17.83;73.50
36692;BME280;22678;52.052;4.242;2022-10-31T11:40:53;101776.66;;;17.86;72.94
36692;BME280;22678;52.052;4.242;2022-10-31T11:43:20;101774.75;;;17.95;72.60
36692;BME280;22678;52.052;4.242;2022-10-31T11:45:46;101771.06;;;17.99;72.68
36692;BME280;22678;52.052;4.242;2022-10-31T11:48:16;101780.50;;;18.14;72.03
36692;BME280;22678;52.052;4.242;2022-10-31T11:50:48;101762.84;;;18.10;71.30
36692;BME280;22678;52.052;4.242;2022-10-31T11:53:17;101776.91;;;18.15;71.01
36692;BME280;22678;52.052;4.242;2022-10-31T11:55:45;101760.44;;;17.99;71.36
36692;BME280;22678;52.052;4.242;2022-10-31T11:58:25;101775.09;;;17.78;72.21
36692;BME280;22678;52.052;4.242;2022-10-31T12:00:54;101757.03;;;17.53;72.63
36692;BME280;22678;52.052;4.242;2022-10-31T12:08:38;101743.88;;;17.08;75.20
36692;BME280;22678;52.052;4.242;2022-10-31T12:16:55;101723.75;;;16.94;76.99
36692;BME280;22678;52.052;4.242;2022-10-31T12:19:41;101711.47;;;16.90;77.59
36692;BME280;22678;52.052;4.242;2022-10-31T12:25:05;101693.72;;;16.91;78.23
36692;BME280;22678;52.052;4.242;2022-10-31T12:27:42;101690.72;;;17.08;78.75
36692;BME280;22678;52.052;4.242;2022-10-31T12:30:14;101679.59;;;17.29;78.61
36692;BME280;22678;52.052;4.242;2022-10-31T12:35:59;101665.69;;;17.56;77.73
36692;BME280;22678;52.052;4.242;2022-10-31T12:42:26;101656.03;;;17.51;77.50
36692;BME280;22678;52.052;4.242;2022-10-31T12:47:33;101634.88;;;17.47;77.80
36692;BME280;22678;52.052;4.242;2022-10-31T12:52:54;101619.69;;;17.52;77.76
36692;BME280;22678;52.052;4.242;2022-10-31T12:55:51;101608.03;;;17.56;77.71
36692;BME280;22678;52.052;4.242;2022-10-31T12:58:43;101606.97;;;17.63;77.78
36692;BME280;22678;52.052;4.242;2022-10-31T13:01:14;101597.72;;;17.78;77.46
36692;BME280;22678;52.052;4.242;2022-10-31T13:06:30;101581.63;;;17.84;77.02
36692;BME280;22678;52.052;4.242;2022-10-31T13:09:00;101584.47;;;17.77;76.61
36692;BME280;22678;52.052;4.242;2022-10-31T13:11:51;101578.31;;;17.75;76.72
36692;BME280;22678;52.052;4.242;2022-10-31T13:14:29;101577.53;;;17.71;76.81
36692;BME280;22678;52.052;4.242;2022-10-31T13:16:56;101560.91;;;17.63;76.73
36692;BME280;22678;52.052;4.242;2022-10-31T13:19:41;101569.69;;;17.65;76.78
36692;BME280;22678;52.052;4.242;2022-10-31T13:22:24;101570.69;;;17.62;76.82
36692;BME280;22678;52.052;4.242;2022-10-31T13:30:31;101560.09;;;17.59;77.12
36692;BME280;22678;52.052;4.242;2022-10-31T13:33:15;101544.16;;;17.58;77.25
36692;BME280;22678;52.052;4.242;2022-10-31T13:38:27;101546.88;;;17.56;77.62
36692;BME280;22678;52.052;4.242;2022-10-31T13:44:00;101538.13;;;17.52;77.72
36692;BME280;22678;52.052;4.242;2022-10-31T13:48:57;101525.81;;;17.48;77.79
36692;BME280;22678;52.052;4.242;2022-10-31T13:51:29;101522.28;;;17.48;77.83
36692;BME280;22678;52.052;4.242;2022-10-31T13:56:25;101507.41;;;17.41;78.23
36692;BME280;22678;52.052;4.242;2022-10-31T13:59:02;101500.41;;;17.37;78.41
36692;BME280;22678;52.052;4.242;2022-10-31T14:01:28;101496.13;;;17.31;78.58
36692;BME280;22678;52.052;4.242;2022-10-31T14:03:59;101499.72;;;17.28;78.63
36692;BME280;22678;52.052;4.242;2022-10-31T14:06:56;101484.88;;;17.21;78.65
36692;BME280;22678;52.052;4.242;2022-10-31T14:09:29;101462.09;;;17.11;78.89
36692;BME280;22678;52.052;4.242;2022-10-31T14:11:58;101470.75;;;17.19;79.06
36692;BME280;22678;52.052;4.242;2022-10-31T14:14:30;101456.72;;;17.14;79.22
36692;BME280;22678;52.052;4.242;2022-10-31T14:16:57;101457.41;;;17.21;79.17
36692;BME280;22678;52.052;4.242;2022-10-31T14:19:23;101452.25;;;17.14;79.32
36692;BME280;22678;52.052;4.242;2022-10-31T14:21:49;101446.88;;;17.17;79.25
36692;BME280;22678;52.052;4.242;2022-10-31T14:24:28;101435.38;;;17.17;79.84
36692;BME280;22678;52.052;4.242;2022-10-31T14:27:00;101418.78;;;17.07;80.03